createdAt,value
2019-02-21T00:02:22.451Z,129.60
2019-02-21T00:04:54.121Z,147.20
2019-02-21T00:07:25.951Z,143.20
2019-02-21T00:09:57.476Z,164.60
2019-02-21T00:12:28.959Z,143.00
2019-02-21T00:15:00.762Z,133.60
2019-02-21T00:17:32.267Z,140.60
2019-02-21T00:20:04.510Z,122.80
2019-02-21T00:22:36.416Z,119.00
2019-02-21T00:25:07.943Z,119.40
2019-02-21T00:27:39.524Z,124.40
2019-02-21T00:30:11.147Z,118.40
2019-02-21T00:32:42.686Z,137.60
2019-02-21T00:35:14.413Z,128.40
2019-02-21T00:37:46.202Z,123.20
2019-02-21T00:40:17.744Z,132.60
2019-02-21T00:42:49.602Z,123.60
2019-02-21T00:45:22.339Z,127.60
2019-02-21T00:47:53.837Z,156.40
2019-02-21T00:50:26.676Z,155.40
2019-02-21T00:52:58.377Z,145.80
2019-02-21T00:55:30.226Z,142.20
2019-02-21T00:58:02.095Z,159.80
2019-02-21T01:00:33.706Z,149.60
2019-02-21T01:03:05.534Z,152.40
2019-02-21T01:05:36.925Z,147.80
2019-02-21T01:08:09.774Z,148.00
2019-02-21T01:10:41.300Z,163.20
2019-02-21T01:13:15.700Z,164.60
2019-02-21T01:15:47.577Z,156.40
2019-02-21T01:18:19.268Z,155.80
2019-02-21T01:20:50.662Z,170.80
2019-02-21T01:23:22.214Z,154.80
2019-02-21T01:25:53.936Z,157.60
2019-02-21T01:28:27.125Z,155.40
2019-02-21T01:31:00.060Z,156.00
2019-02-21T01:33:31.333Z,156.40
2019-02-21T01:36:03.096Z,133.20
2019-02-21T01:38:34.728Z,151.80
2019-02-21T01:41:06.652Z,145.40
2019-02-21T01:43:38.111Z,138.20
2019-02-21T01:46:10.155Z,152.00
2019-02-21T01:48:41.649Z,151.60
2019-02-21T01:51:13.216Z,151.60
2019-02-21T01:53:45.020Z,179.00
2019-02-21T01:56:16.447Z,171.40
2019-02-21T01:58:48.200Z,178.80
2019-02-21T02:01:19.533Z,184.40
2019-02-21T02:03:51.005Z,179.80
2019-02-21T02:09:21.604Z,172.40
2019-02-21T02:11:53.022Z,190.00
2019-02-21T02:14:24.826Z,193.20
2019-02-21T02:16:56.837Z,197.60
2019-02-21T02:19:28.419Z,194.20
2019-02-21T02:22:00.380Z,199.60
2019-02-21T02:24:32.289Z,198.00
2019-02-21T02:27:04.111Z,199.60
2019-02-21T02:29:36.002Z,164.60
2019-02-21T02:32:09.546Z,163.80
2019-02-21T02:34:41.001Z,158.00
2019-02-21T02:37:12.690Z,167.00
2019-02-21T02:39:44.455Z,158.40
2019-02-21T02:42:17.660Z,166.40
2019-02-21T02:44:49.395Z,184.80
2019-02-21T02:47:21.870Z,222.00
2019-02-21T02:49:54.428Z,170.00
2019-02-21T02:52:26.230Z,221.75
2019-02-21T02:54:58.035Z,192.40
2019-02-21T02:57:30.745Z,166.20
2019-02-21T03:00:02.406Z,200.40
2019-02-21T03:02:34.171Z,173.80
2019-02-21T03:05:05.838Z,189.40
2019-02-21T03:07:37.538Z,181.60
2019-02-21T03:10:10.574Z,189.40
2019-02-21T03:12:42.477Z,185.20
2019-02-21T03:15:15.377Z,186.60
2019-02-21T03:17:47.221Z,202.80
2019-02-21T03:20:19.045Z,201.00
2019-02-21T03:22:50.802Z,205.80
2019-02-21T03:25:22.466Z,188.20
2019-02-21T03:27:54.140Z,204.00
2019-02-21T03:30:25.852Z,211.00
2019-02-21T03:32:57.610Z,202.00
2019-02-21T03:35:29.036Z,189.40
2019-02-21T03:38:00.811Z,191.60
2019-02-21T03:40:32.656Z,194.40
2019-02-21T03:43:04.339Z,164.40
2019-02-21T03:45:36.340Z,186.20
2019-02-21T03:48:10.537Z,163.80
2019-02-21T03:50:42.428Z,175.80
2019-02-21T03:53:15.425Z,177.00
2019-02-21T03:55:47.005Z,165.00
2019-02-21T03:58:18.766Z,188.20
2019-02-21T04:00:50.486Z,169.40
2019-02-21T04:03:25.304Z,164.60
2019-02-21T04:05:57.547Z,174.80
2019-02-21T04:08:29.303Z,162.60
2019-02-21T04:11:01.654Z,181.80
2019-02-21T04:13:33.240Z,148.80
2019-02-21T04:16:05.518Z,178.00
2019-02-21T04:18:38.256Z,179.60
2019-02-21T04:21:09.986Z,200.60
2019-02-21T04:23:41.803Z,179.40
2019-02-21T04:26:13.557Z,166.60
2019-02-21T04:28:46.446Z,176.80
2019-02-21T04:31:18.381Z,173.40
2019-02-21T04:33:50.249Z,162.75
2019-02-21T04:36:23.465Z,167.20
2019-02-21T04:38:56.612Z,181.80
2019-02-21T04:41:28.620Z,187.80
2019-02-21T04:44:00.558Z,172.60
2019-02-21T04:46:32.387Z,155.00
2019-02-21T04:49:03.980Z,143.60
2019-02-21T04:51:36.017Z,132.20
2019-02-21T04:54:07.583Z,144.40
2019-02-21T04:56:39.345Z,132.20
2019-02-21T04:59:10.975Z,128.60
2019-02-21T05:01:42.724Z,127.80
2019-02-21T05:04:14.647Z,115.60
2019-02-21T05:06:46.480Z,109.40
2019-02-21T05:09:18.649Z,98.20
2019-02-21T05:11:50.460Z,97.00
2019-02-21T05:14:22.217Z,98.00
2019-02-21T05:16:54.077Z,126.60
2019-02-21T05:19:25.862Z,99.80
2019-02-21T05:21:57.983Z,105.60
2019-02-21T05:24:29.886Z,100.40
2019-02-21T05:27:09.905Z,103.40
2019-02-21T05:29:41.509Z,97.80
2019-02-21T05:32:24.616Z,104.00
2019-02-21T05:35:21.352Z,111.20
2019-02-21T05:38:10.442Z,98.80
2019-02-21T05:41:04.461Z,110.00
2019-02-21T05:43:58.362Z,106.40
2019-02-21T05:46:48.793Z,90.20
2019-02-21T05:49:33.054Z,88.60
2019-02-21T05:52:22.118Z,87.80
2019-02-21T05:54:58.878Z,92.00
2019-02-21T05:57:36.922Z,88.40
2019-02-21T06:00:21.966Z,94.00
2019-02-21T06:03:12.258Z,102.80
2019-02-21T06:05:54.620Z,106.20
2019-02-21T06:08:46.148Z,100.20
2019-02-21T06:11:39.523Z,115.40
2019-02-21T06:14:36.173Z,127.80
2019-02-21T06:17:41.818Z,125.20
2019-02-21T06:20:35.300Z,113.60
2019-02-21T06:23:25.123Z,110.20
2019-02-21T06:26:22.032Z,109.60
2019-02-21T06:28:59.403Z,106.00
2019-02-21T06:31:31.227Z,107.40
2019-02-21T06:34:03.089Z,100.80
2019-02-21T06:36:36.799Z,98.20
2019-02-21T06:39:10.914Z,96.60
2019-02-21T06:41:43.177Z,111.80
2019-02-21T06:44:15.497Z,104.20
2019-02-21T06:46:47.811Z,92.60
2019-02-21T06:49:19.855Z,115.20
2019-02-21T06:51:52.002Z,85.80
2019-02-21T06:54:24.660Z,93.60
2019-02-21T06:56:57.156Z,85.80
2019-02-21T06:59:29.848Z,95.40
2019-02-21T07:02:02.588Z,85.40
2019-02-21T07:04:35.322Z,76.20
2019-02-21T07:07:08.050Z,78.20
2019-02-21T07:09:40.647Z,81.20
2019-02-21T07:12:13.007Z,84.80
2019-02-21T07:14:45.557Z,82.20
2019-02-21T07:17:17.884Z,93.20
2019-02-21T07:19:50.231Z,85.80
2019-02-21T07:22:22.755Z,71.60
2019-02-21T07:24:59.549Z,83.80
2019-02-21T07:27:32.140Z,78.20
2019-02-21T07:30:06.266Z,72.40
2019-02-21T07:32:39.578Z,78.20
2019-02-21T07:35:12.528Z,79.00
2019-02-21T07:37:45.410Z,76.20
2019-02-21T07:40:20.373Z,77.60
2019-02-21T07:42:52.596Z,76.00
2019-02-21T07:45:25.453Z,85.20
2019-02-21T07:47:58.477Z,83.80
2019-02-21T07:50:31.144Z,74.80
2019-02-21T07:53:04.162Z,79.60
2019-02-21T07:55:36.797Z,85.40
2019-02-21T07:58:09.623Z,81.20
2019-02-21T08:00:44.421Z,84.80
2019-02-21T08:03:29.532Z,84.40
2019-02-21T08:05:51.723Z,79.40
2019-02-21T08:08:32.325Z,75.80
2019-02-21T08:11:07.127Z,77.80
2019-02-21T08:13:39.810Z,85.20
2019-02-21T08:16:12.625Z,83.80
2019-02-21T08:18:45.235Z,85.80
2019-02-21T08:21:17.559Z,83.20
2019-02-21T08:23:50.993Z,84.60
2019-02-21T08:26:23.083Z,75.60
2019-02-21T08:28:55.227Z,79.40
2019-02-21T08:31:28.280Z,83.40
2019-02-21T08:34:07.104Z,81.60
2019-02-21T08:36:39.409Z,87.60
2019-02-21T08:39:12.463Z,79.80
2019-02-21T08:41:44.674Z,85.40
2019-02-21T08:44:16.694Z,78.80
2019-02-21T08:46:48.979Z,81.60
2019-02-21T08:49:20.991Z,78.80
2019-02-21T08:51:55.135Z,85.20
2019-02-21T08:54:27.206Z,83.40
2019-02-21T08:56:59.747Z,75.40
2019-02-21T08:59:32.092Z,78.40
2019-02-21T09:02:05.163Z,82.20
2019-02-21T09:04:37.382Z,85.80
2019-02-21T09:07:09.550Z,81.40
2019-02-21T09:09:41.946Z,79.60
2019-02-21T09:12:14.237Z,82.80
2019-02-21T09:14:46.918Z,74.60
2019-02-21T09:17:19.053Z,79.00
2019-02-21T09:19:51.498Z,76.40
2019-02-21T09:22:23.723Z,81.20
2019-02-21T09:24:56.010Z,75.20
2019-02-21T09:27:30.499Z,71.40
2019-02-21T09:30:05.122Z,76.60
2019-02-21T09:32:37.165Z,76.80
2019-02-21T09:35:08.998Z,76.40
2019-02-21T09:37:40.946Z,74.40
2019-02-21T09:40:13.595Z,74.80
2019-02-21T09:42:45.456Z,73.40
2019-02-21T09:45:20.296Z,74.20
2019-02-21T09:47:52.399Z,77.20
2019-02-21T09:50:24.228Z,75.00
2019-02-21T09:52:55.921Z,78.60
2019-02-21T09:55:29.688Z,74.00
2019-02-21T09:58:01.440Z,78.40
2019-02-21T10:00:35.898Z,80.00
2019-02-21T10:03:07.023Z,79.60
2019-02-21T10:05:38.787Z,70.40
2019-02-21T10:08:10.696Z,75.60
2019-02-21T10:10:42.611Z,71.60
2019-02-21T10:13:14.547Z,86.80
2019-02-21T10:15:47.082Z,75.00
2019-02-21T10:18:19.013Z,75.40
2019-02-21T10:20:50.955Z,70.40
2019-02-21T10:23:24.296Z,67.00
2019-02-21T10:25:56.198Z,74.00
2019-02-21T10:28:28.114Z,70.60
2019-02-21T10:30:59.981Z,71.00
2019-02-21T10:33:32.905Z,67.00
2019-02-21T10:36:04.758Z,70.00
2019-02-21T10:38:36.497Z,67.60
2019-02-21T10:41:08.933Z,75.80
2019-02-21T10:43:41.053Z,68.60
2019-02-21T10:46:12.855Z,71.80
2019-02-21T10:48:44.426Z,72.60
2019-02-21T10:51:16.327Z,65.00
2019-02-21T10:53:48.792Z,69.00
2019-02-21T10:56:20.467Z,67.60
2019-02-21T10:58:52.304Z,68.40
2019-02-21T11:01:24.110Z,73.60
2019-02-21T11:03:56.192Z,62.00
2019-02-21T11:06:27.643Z,67.60
2019-02-21T11:08:59.464Z,64.80
2019-02-21T11:11:31.854Z,68.20
2019-02-21T11:14:03.794Z,58.40
2019-02-21T11:16:35.695Z,61.40
2019-02-21T11:19:07.489Z,58.40
2019-02-21T11:21:39.225Z,60.40
2019-02-21T11:24:10.987Z,57.20
2019-02-21T11:26:42.762Z,59.00
2019-02-21T11:29:14.488Z,57.00
2019-02-21T11:31:46.463Z,54.60
2019-02-21T11:34:18.561Z,54.20
2019-02-21T11:36:50.293Z,55.00
2019-02-21T11:39:22.114Z,51.40
2019-02-21T11:41:54.308Z,58.60
2019-02-21T11:44:27.361Z,60.40
2019-02-21T11:46:59.303Z,65.60
2019-02-21T11:49:31.060Z,58.80
2019-02-21T11:52:09.888Z,50.40
2019-02-21T11:54:36.387Z,64.40
2019-02-21T11:57:08.178Z,63.60
2019-02-21T11:59:40.396Z,64.40
2019-02-21T12:02:12.512Z,60.80
2019-02-21T12:04:44.484Z,63.00
2019-02-21T12:07:16.667Z,59.60
2019-02-21T12:09:48.665Z,53.40
2019-02-21T12:12:20.895Z,57.60
2019-02-21T12:14:52.936Z,63.20
2019-02-21T12:17:24.342Z,69.00
2019-02-21T12:19:56.241Z,69.40
2019-02-21T12:22:28.031Z,68.20
2019-02-21T12:24:59.502Z,69.80
2019-02-21T12:27:31.339Z,56.60
2019-02-21T12:30:03.695Z,63.80
2019-02-21T12:32:35.969Z,68.80
2019-02-21T12:35:08.875Z,70.20
2019-02-21T12:37:41.992Z,67.60
2019-02-21T12:40:15.722Z,63.40
2019-02-21T12:42:47.829Z,67.80
2019-02-21T12:45:20.397Z,66.40
2019-02-21T12:47:54.016Z,68.40
2019-02-21T12:50:25.924Z,67.80
2019-02-21T12:52:57.821Z,70.80
2019-02-21T12:55:31.793Z,68.00
2019-02-21T12:58:03.344Z,71.00
2019-02-21T13:00:36.639Z,69.80
2019-02-21T13:03:08.387Z,66.60
2019-02-21T13:05:41.387Z,60.20
2019-02-21T13:08:13.869Z,67.20
2019-02-21T13:10:45.913Z,68.80
2019-02-21T13:13:17.676Z,69.20
2019-02-21T13:15:49.726Z,72.00
2019-02-21T13:18:21.046Z,64.80
2019-02-21T13:20:52.340Z,64.80
2019-02-21T13:23:23.881Z,66.00
2019-02-21T13:25:55.349Z,69.60
2019-02-21T13:28:26.938Z,65.20
2019-02-21T13:30:58.872Z,67.80
2019-02-21T13:33:30.607Z,67.40
2019-02-21T13:36:02.484Z,71.60
2019-02-21T13:38:33.894Z,68.80
2019-02-21T13:41:05.887Z,69.20
2019-02-21T13:43:37.354Z,71.60
2019-02-21T13:46:14.679Z,74.40
2019-02-21T13:48:56.875Z,78.60
2019-02-21T13:51:28.697Z,75.40
2019-02-21T13:54:00.406Z,69.00
2019-02-21T13:56:32.336Z,77.80
2019-02-21T13:59:04.376Z,78.00
2019-02-21T14:01:36.370Z,73.20
2019-02-21T14:04:08.661Z,78.00
2019-02-21T14:06:40.542Z,77.60
2019-02-21T14:09:12.508Z,74.40
2019-02-21T14:11:44.286Z,77.00
2019-02-21T14:14:16.206Z,79.60
2019-02-21T14:16:48.040Z,84.20
2019-02-21T14:19:19.520Z,82.40
2019-02-21T14:21:51.452Z,84.60
2019-02-21T14:24:23.268Z,84.40
2019-02-21T14:26:54.941Z,84.40
2019-02-21T14:29:38.277Z,86.20
2019-02-21T14:32:02.821Z,85.00
2019-02-21T14:34:34.787Z,79.60
2019-02-21T14:37:06.241Z,85.40
2019-02-21T14:39:37.867Z,87.60
2019-02-21T14:42:09.261Z,86.20
2019-02-21T14:44:40.757Z,93.00
2019-02-21T14:47:12.496Z,93.20
2019-02-21T14:49:44.073Z,87.60
2019-02-21T14:52:15.807Z,89.20
2019-02-21T14:54:47.369Z,87.40
2019-02-21T14:57:19.508Z,86.20
2019-02-21T14:59:51.490Z,87.60
2019-02-21T15:02:23.123Z,86.60
2019-02-21T15:04:54.744Z,81.00
2019-02-21T15:07:26.485Z,81.80
2019-02-21T15:09:58.382Z,84.60
2019-02-21T15:12:30.142Z,75.20
2019-02-21T15:15:01.800Z,79.80
2019-02-21T15:17:33.312Z,79.80
2019-02-21T15:20:05.390Z,83.60
2019-02-21T15:22:37.214Z,84.20
2019-02-21T15:25:09.534Z,81.00
2019-02-21T15:27:41.387Z,85.00
2019-02-21T15:30:15.398Z,84.00
2019-02-21T15:32:47.112Z,82.60
2019-02-21T15:35:19.576Z,81.20
2019-02-21T15:37:51.458Z,89.00
2019-02-21T15:40:23.299Z,98.20
2019-02-21T15:42:55.040Z,91.40
2019-02-21T15:45:28.796Z,93.40
2019-02-21T15:48:00.506Z,99.00
2019-02-21T15:50:32.326Z,88.40
2019-02-21T15:53:04.040Z,91.00
2019-02-21T15:55:36.895Z,91.20
2019-02-21T15:58:08.644Z,88.40
2019-02-21T16:00:41.463Z,88.80
2019-02-21T16:03:13.110Z,88.40
2019-02-21T16:05:45.100Z,97.40
2019-02-21T16:08:17.016Z,88.80
2019-02-21T16:10:48.781Z,92.60
2019-02-21T16:13:20.782Z,87.40
2019-02-21T16:15:52.868Z,85.60
2019-02-21T16:18:24.926Z,87.40
2019-02-21T16:20:56.799Z,91.60
2019-02-21T16:23:28.250Z,93.60
2019-02-21T16:26:00.033Z,92.00
2019-02-21T16:28:32.450Z,90.20
2019-02-21T16:31:04.455Z,93.60
2019-02-21T16:33:36.311Z,91.40
2019-02-21T16:36:08.239Z,91.80
2019-02-21T16:38:40.052Z,88.20
2019-02-21T16:41:12.684Z,90.00
2019-02-21T16:43:44.753Z,89.20
2019-02-21T16:46:16.895Z,90.00
2019-02-21T16:48:48.682Z,83.20
2019-02-21T16:51:22.281Z,98.00
2019-02-21T16:53:54.256Z,103.80
2019-02-21T16:56:26.725Z,99.20
2019-02-21T16:58:58.678Z,91.40
2019-02-21T17:01:30.527Z,89.00
2019-02-21T17:04:02.523Z,87.80
2019-02-21T17:06:34.555Z,94.80
2019-02-21T17:09:08.599Z,94.80
2019-02-21T17:11:41.711Z,91.40
2019-02-21T17:14:13.649Z,92.40
2019-02-21T17:16:45.631Z,94.80
2019-02-21T17:19:17.828Z,95.80
2019-02-21T17:21:49.898Z,89.40
2019-02-21T17:24:21.914Z,92.40
2019-02-21T17:26:54.477Z,103.60
2019-02-21T17:29:26.314Z,91.40
2019-02-21T17:31:57.999Z,92.20
2019-02-21T17:34:29.540Z,86.80
2019-02-21T17:37:01.255Z,98.60
2019-02-21T17:39:33.702Z,95.20
2019-02-21T17:42:05.404Z,97.00
2019-02-21T17:44:37.198Z,92.80
2019-02-21T17:47:09.218Z,94.40
2019-02-21T17:49:41.322Z,92.00
2019-02-21T17:52:13.470Z,91.20
2019-02-21T17:54:45.435Z,98.20
2019-02-21T17:57:17.298Z,99.60
2019-02-21T17:59:49.085Z,92.40
2019-02-21T18:02:20.875Z,91.20
2019-02-21T18:04:52.982Z,90.80
2019-02-21T18:07:35.795Z,92.60
2019-02-21T18:09:58.642Z,88.80
2019-02-21T18:12:30.410Z,93.20
2019-02-21T18:15:02.269Z,92.40
2019-02-21T18:17:35.551Z,101.00
2019-02-21T18:20:07.899Z,100.60
2019-02-21T18:22:39.583Z,93.40
2019-02-21T18:25:17.992Z,96.80
2019-02-21T18:27:49.723Z,93.20
2019-02-21T18:30:21.929Z,90.80
2019-02-21T18:32:53.780Z,87.60
2019-02-21T18:35:25.571Z,96.60
2019-02-21T18:37:57.624Z,92.80
2019-02-21T18:40:29.283Z,91.20
2019-02-21T18:43:00.918Z,92.40
2019-02-21T18:45:32.643Z,81.80
2019-02-21T18:48:04.686Z,95.40
2019-02-21T18:50:38.391Z,91.40
2019-02-21T18:53:09.805Z,92.40
2019-02-21T18:55:41.692Z,95.80
2019-02-21T18:58:13.201Z,91.00
2019-02-21T19:00:45.123Z,93.80
2019-02-21T19:03:17.634Z,97.20
2019-02-21T19:05:49.413Z,92.40
2019-02-21T19:08:21.349Z,92.20
2019-02-21T19:10:53.109Z,92.40
2019-02-21T19:13:24.816Z,93.60
2019-02-21T19:15:57.118Z,98.40
2019-02-21T19:18:28.853Z,106.00
2019-02-21T19:21:00.693Z,97.20
2019-02-21T19:23:32.745Z,93.80
2019-02-21T19:26:04.633Z,92.00
2019-02-21T19:28:36.639Z,98.00
2019-02-21T19:31:12.811Z,95.60
2019-02-21T19:33:44.729Z,95.00
2019-02-21T19:36:16.649Z,99.80
2019-02-21T19:38:48.409Z,100.60
2019-02-21T19:41:20.131Z,108.00
2019-02-21T19:43:52.057Z,96.80
2019-02-21T19:46:24.745Z,96.20
2019-02-21T19:48:56.557Z,98.40
2019-02-21T19:51:28.587Z,110.20
2019-02-21T19:54:00.401Z,106.60
2019-02-21T19:56:32.508Z,95.40
2019-02-21T19:59:04.366Z,101.20
2019-02-21T20:01:36.203Z,100.00
2019-02-21T20:04:07.986Z,100.40
2019-02-21T20:06:39.776Z,94.40
2019-02-21T20:09:12.757Z,89.60
2019-02-21T20:11:44.758Z,96.80
2019-02-21T20:14:16.325Z,95.20
2019-02-21T20:16:48.851Z,92.80
2019-02-21T20:19:20.578Z,92.60
2019-02-21T20:21:54.419Z,102.00
2019-02-21T20:24:25.648Z,93.20
2019-02-21T20:27:00.159Z,94.60
2019-02-21T20:29:31.225Z,96.20
2019-02-21T20:32:02.890Z,94.00
2019-02-21T20:34:35.508Z,94.00
2019-02-21T20:37:07.382Z,93.00
2019-02-21T20:39:39.144Z,102.60
2019-02-21T20:42:10.892Z,94.60
2019-02-21T20:44:42.512Z,96.80
2019-02-21T20:47:14.389Z,99.20
2019-02-21T20:49:45.996Z,101.60
2019-02-21T20:52:17.859Z,100.80
2019-02-21T20:54:49.551Z,93.60
2019-02-21T20:57:21.263Z,100.80
2019-02-21T20:59:53.009Z,97.40
2019-02-21T21:02:24.977Z,101.20
2019-02-21T21:04:57.035Z,91.60
2019-02-21T21:07:28.932Z,95.40
2019-02-21T21:10:00.560Z,102.60
2019-02-21T21:12:32.177Z,93.80
2019-02-21T21:15:03.871Z,109.60
2019-02-21T21:17:37.238Z,99.00
2019-02-21T21:20:16.647Z,104.60
2019-02-21T21:22:44.195Z,96.40
2019-02-21T21:25:16.507Z,109.20
2019-02-21T21:27:48.416Z,100.20
2019-02-21T21:30:20.158Z,99.60
2019-02-21T21:32:51.691Z,90.00
2019-02-21T21:35:23.316Z,99.60
2019-02-21T21:37:55.190Z,91.00
2019-02-21T21:40:26.991Z,104.60
2019-02-21T21:42:58.877Z,97.40
2019-02-21T21:45:30.589Z,99.60
2019-02-21T21:48:02.351Z,97.00
2019-02-21T21:50:35.239Z,97.40
2019-02-21T21:53:07.096Z,93.80
2019-02-21T21:55:39.167Z,107.20
2019-02-21T21:58:12.894Z,100.60
2019-02-21T22:00:44.553Z,96.20
2019-02-21T22:03:16.518Z,97.40
2019-02-21T22:05:48.141Z,95.60
2019-02-21T22:08:19.961Z,103.00
2019-02-21T22:10:52.217Z,102.60
2019-02-21T22:13:23.803Z,100.20
2019-02-21T22:15:55.453Z,98.40
2019-02-21T22:18:27.160Z,96.80
2019-02-21T22:20:58.813Z,102.60
2019-02-21T22:23:30.548Z,105.20
2019-02-21T22:26:02.320Z,102.00
2019-02-21T22:28:34.032Z,102.20
2019-02-21T22:31:05.671Z,101.40
2019-02-21T22:33:37.346Z,98.20
2019-02-21T22:36:09.070Z,107.80
2019-02-21T22:38:40.646Z,112.00
2019-02-21T22:41:12.459Z,108.80
2019-02-21T22:43:44.470Z,96.00
2019-02-21T22:46:16.243Z,102.80
2019-02-21T22:48:48.025Z,98.20
2019-02-21T22:51:19.776Z,108.20
2019-02-21T22:53:51.502Z,96.40
2019-02-21T22:56:23.081Z,95.20
2019-02-21T22:58:55.000Z,107.80
2019-02-21T23:01:47.143Z,114.20
2019-02-21T23:04:58.222Z,103.00
2019-02-21T23:07:49.781Z,106.60
2019-02-21T23:10:21.337Z,101.20
2019-02-21T23:12:53.152Z,99.00
2019-02-21T23:15:24.613Z,110.60
2019-02-21T23:17:56.323Z,116.40
2019-02-21T23:20:28.112Z,96.20
2019-02-21T23:22:59.688Z,101.40
2019-02-21T23:25:32.431Z,111.40
2019-02-21T23:28:04.206Z,96.20
2019-02-21T23:30:35.685Z,105.80
2019-02-21T23:33:07.800Z,114.20
2019-02-21T23:35:39.112Z,100.40
2019-02-21T23:38:10.939Z,110.80
2019-02-21T23:40:42.762Z,111.40
2019-02-21T23:43:15.915Z,109.20
2019-02-21T23:45:47.971Z,108.00
2019-02-21T23:48:19.828Z,117.60
2019-02-21T23:50:51.531Z,105.40
2019-02-21T23:53:23.643Z,103.80
2019-02-21T23:55:55.297Z,116.40
2019-02-21T23:58:26.944Z,115.80
